Time;durP1;ratioP1;P1;durP2;ratioP2;P2;SDS_P1;SDS_P2;PMS_P1;PMS_P2;Temp;Humidity;BMP_temperature;BMP_pressure;BME280_temperature;BME280_humidity;BME280_pressure;Samples;Min_cycle;Max_cycle;Signal;HPM_P1;HPM_P2
2022/04/09 00:02:05;;;;;;;;;;;0.00;99.90;;;;;;5047673;28;19967;-75
2022/04/09 00:04:31;;;;;;;;;;;0.00;99.90;;;;;;5050417;28;20084;-74
2022/04/09 00:06:56;;;;;;;;;;;0.10;99.90;;;;;;5051085;28;19909;-74
2022/04/09 00:09:22;;;;;;;;;;;0.10;99.90;;;;;;5050862;28;19948;-74
2022/04/09 00:11:48;;;;;;;;;;;0.10;99.90;;;;;;5050631;28;20381;-74
2022/04/09 00:14:13;;;;;;;;;;;0.10;99.90;;;;;;5050588;28;20322;-74
2022/04/09 00:16:39;;;;;;;;;;;0.10;99.90;;;;;;5050622;28;20007;-75
2022/04/09 00:19:05;;;;;;;;;;;0.10;99.90;;;;;;5049310;28;20012;-74
2022/04/09 00:21:31;;;;;;;;;;;0.10;99.90;;;;;;5053583;28;19916;-74
2022/04/09 00:23:57;;;;;;;;;;;0.10;99.90;;;;;;5053235;28;19920;-74
2022/04/09 00:26:22;;;;;;;;;;;0.10;99.90;;;;;;5054509;28;19912;-74
2022/04/09 00:28:48;;;;;;;;;;;0.20;99.90;;;;;;5054633;28;20151;-74
2022/04/09 00:31:13;;;;;;;;;;;0.20;99.90;;;;;;5049452;28;20011;-73
2022/04/09 00:33:39;;;;;;;;;;;0.20;99.90;;;;;;5053784;28;19909;-74
2022/04/09 00:36:04;;;;;;;;;;;0.20;99.90;;;;;;5054433;28;19996;-74
2022/04/09 00:38:30;;;;;;;;;;;0.20;99.90;;;;;;5053087;28;19909;-74
2022/04/09 00:40:56;;;;;;;;;;;0.20;99.90;;;;;;5054341;28;20293;-74
2022/04/09 00:43:21;;;;;;;;;;;0.20;99.90;;;;;;5054263;28;19912;-75
2022/04/09 00:45:48;;;;;;;;;;;0.20;99.90;;;;;;5052815;28;19912;-74
2022/04/09 00:48:13;;;;;;;;;;;0.20;99.90;;;;;;5052810;28;19923;-74
2022/04/09 00:50:39;;;;;;;;;;;0.20;99.90;;;;;;5053525;28;19909;-73
2022/04/09 00:53:05;;;;;;;;;;;0.30;99.90;;;;;;5053738;28;20029;-72
2022/04/09 00:58:16;;;;;;;;;;;0.30;99.90;;;;;;5048658;28;20491;-74
2022/04/09 01:00:42;;;;;;;;;;;0.30;99.90;;;;;;5052309;28;19917;-74
2022/04/09 01:03:10;;;;;;;;;;;0.30;99.90;;;;;;5053346;28;19931;-74
2022/04/09 01:05:37;;;;;;;;;;;0.30;99.90;;;;;;5053920;28;20454;-74
2022/04/09 01:08:03;;;;;;;;;;;0.20;99.90;;;;;;5048333;28;19932;-74
2022/04/09 01:10:29;;;;;;;;;;;0.20;99.90;;;;;;5053108;28;19909;-75
2022/04/09 01:12:54;;;;;;;;;;;0.20;99.90;;;;;;5053409;28;19916;-75
2022/04/09 01:15:20;;;;;;;;;;;0.20;99.90;;;;;;5053470;28;20328;-74
2022/04/09 01:17:45;;;;;;;;;;;0.20;99.90;;;;;;5053492;28;19927;-74
2022/04/09 01:20:17;;;;;;;;;;;0.20;99.90;;;;;;5051595;28;19967;-74
2022/04/09 01:22:43;;;;;;;;;;;0.20;99.90;;;;;;5046880;28;20021;-73
2022/04/09 01:25:08;;;;;;;;;;;0.20;99.90;;;;;;5053264;28;20385;-74
2022/04/09 01:27:34;;;;;;;;;;;0.20;99.90;;;;;;5053186;28;19909;-74
2022/04/09 01:30:00;;;;;;;;;;;0.20;99.90;;;;;;5053391;28;19908;-73
2022/04/09 01:32:25;;;;;;;;;;;0.20;99.90;;;;;;5052305;28;20362;-74
2022/04/09 01:34:52;;;;;;;;;;;0.20;99.90;;;;;;5053093;28;19915;-75
2022/04/09 01:37:18;;;;;;;;;;;0.20;99.90;;;;;;5053189;28;19916;-75
2022/04/09 01:39:43;;;;;;;;;;;0.20;99.90;;;;;;5053054;28;20289;-75
2022/04/09 01:42:10;;;;;;;;;;;0.20;99.90;;;;;;5052809;28;19948;-75
2022/04/09 01:44:36;;;;;;;;;;;0.20;99.90;;;;;;5052756;28;19940;-75
2022/04/09 01:47:02;;;;;;;;;;;0.20;99.90;;;;;;5053008;28;19995;-75
2022/04/09 01:49:27;;;;;;;;;;;0.30;99.90;;;;;;5052028;28;19909;-75
2022/04/09 01:51:53;;;;;;;;;;;0.30;99.90;;;;;;5052406;28;19919;-75
2022/04/09 01:54:18;;;;;;;;;;;0.20;99.90;;;;;;5051393;28;19988;-73
2022/04/09 01:56:44;;;;;;;;;;;0.20;99.90;;;;;;5052744;28;20293;-75
2022/04/09 01:59:09;;;;;;;;;;;0.20;99.90;;;;;;5053037;28;20003;-75
2022/04/09 02:01:35;;;;;;;;;;;0.20;99.90;;;;;;5052522;28;20251;-75
2022/04/09 02:04:00;;;;;;;;;;;0.20;99.90;;;;;;5052523;28;19908;-75
2022/04/09 02:06:26;;;;;;;;;;;0.20;99.90;;;;;;5052637;28;19917;-75
2022/04/09 02:08:51;;;;;;;;;;;0.20;99.90;;;;;;5052701;28;19999;-75
2022/04/09 02:11:17;;;;;;;;;;;0.30;99.90;;;;;;5052200;28;19909;-73
2022/04/09 02:13:42;;;;;;;;;;;0.30;99.90;;;;;;5052323;28;19980;-75
2022/04/09 02:16:08;;;;;;;;;;;0.30;99.90;;;;;;5052398;28;19999;-75
2022/04/09 02:18:33;;;;;;;;;;;0.30;99.90;;;;;;5052295;28;19917;-75
2022/04/09 02:20:59;;;;;;;;;;;0.40;99.90;;;;;;5051743;28;19940;-75
2022/04/09 02:23:24;;;;;;;;;;;0.40;99.90;;;;;;5051732;28;20429;-75
2022/04/09 02:25:50;;;;;;;;;;;0.40;99.90;;;;;;5052445;28;19913;-74
2022/04/09 02:28:15;;;;;;;;;;;0.40;99.90;;;;;;5052242;28;19909;-72
2022/04/09 02:30:40;;;;;;;;;;;0.40;99.90;;;;;;5052016;28;20270;-75
2022/04/09 02:33:06;;;;;;;;;;;0.40;99.90;;;;;;5052019;28;19966;-75
2022/04/09 02:35:31;;;;;;;;;;;0.50;99.90;;;;;;5052259;28;19909;-74
2022/04/09 02:37:57;;;;;;;;;;;0.30;99.90;;;;;;5052087;28;19908;-75
2022/04/09 02:40:23;;;;;;;;;;;0.40;99.90;;;;;;5051810;28;19962;-75
2022/04/09 02:42:48;;;;;;;;;;;0.40;99.90;;;;;;5050914;28;20366;-75
2022/04/09 02:45:14;;;;;;;;;;;0.40;99.90;;;;;;5051423;28;19913;-74
2022/04/09 02:47:40;;;;;;;;;;;0.40;99.90;;;;;;5051843;28;19916;-75
2022/04/09 02:50:06;;;;;;;;;;;0.40;99.90;;;;;;5051739;28;19912;-74
2022/04/09 02:52:32;;;;;;;;;;;0.50;99.90;;;;;;5051726;28;20255;-73
2022/04/09 02:54:58;;;;;;;;;;;0.40;99.90;;;;;;5051327;28;20008;-73
2022/04/09 02:57:23;;;;;;;;;;;0.40;99.90;;;;;;5051734;28;20362;-75
2022/04/09 02:59:49;;;;;;;;;;;0.50;99.90;;;;;;5051555;28;19909;-74
2022/04/09 03:02:14;;;;;;;;;;;0.50;99.90;;;;;;5051231;28;19909;-74
2022/04/09 03:04:40;;;;;;;;;;;0.40;99.90;;;;;;5050933;28;19909;-73
2022/04/09 03:07:05;;;;;;;;;;;0.50;99.90;;;;;;5051391;28;19913;-75
2022/04/09 03:09:31;;;;;;;;;;;0.40;99.90;;;;;;5051255;28;19917;-75
2022/04/09 03:11:57;;;;;;;;;;;0.40;99.90;;;;;;5048540;28;20369;-74
2022/04/09 03:14:22;;;;;;;;;;;0.50;99.90;;;;;;5050680;28;19915;-72
2022/04/09 03:16:48;;;;;;;;;;;0.50;99.90;;;;;;5051129;28;19943;-75
2022/04/09 03:19:13;;;;;;;;;;;0.50;99.90;;;;;;5051348;28;20487;-74
2022/04/09 03:21:39;;;;;;;;;;;0.50;99.90;;;;;;5051063;28;19931;-75
2022/04/09 03:24:04;;;;;;;;;;;0.50;99.90;;;;;;5050935;28;19912;-75
2022/04/09 03:26:30;;;;;;;;;;;0.50;99.90;;;;;;5051453;28;20270;-75
2022/04/09 03:28:55;;;;;;;;;;;0.50;99.90;;;;;;5051081;28;19909;-75
2022/04/09 03:31:21;;;;;;;;;;;0.50;99.90;;;;;;5050943;28;19909;-74
2022/04/09 03:33:47;;;;;;;;;;;0.60;99.90;;;;;;5050879;28;19909;-75
2022/04/09 03:36:13;;;;;;;;;;;0.60;99.90;;;;;;5050661;28;20103;-75
2022/04/09 03:38:42;;;;;;;;;;;0.60;99.90;;;;;;5049710;28;20404;-75
2022/04/09 03:41:08;;;;;;;;;;;0.60;99.90;;;;;;5046233;28;19913;-75
2022/04/09 03:43:33;;;;;;;;;;;0.60;99.90;;;;;;5050053;28;19916;-75
2022/04/09 03:45:59;;;;;;;;;;;0.70;99.90;;;;;;5050897;28;20019;-75
2022/04/09 03:48:24;;;;;;;;;;;0.70;99.90;;;;;;5051000;28;20067;-75
2022/04/09 03:50:50;;;;;;;;;;;0.70;99.90;;;;;;5050931;28;19979;-75
2022/04/09 03:53:19;;;;;;;;;;;0.60;99.90;;;;;;5050616;28;19909;-75
2022/04/09 03:55:48;;;;;;;;;;;0.70;99.90;;;;;;5046744;28;19909;-75
2022/04/09 03:58:17;;;;;;;;;;;0.70;99.90;;;;;;5049086;28;20255;-75
2022/04/09 04:00:43;;;;;;;;;;;0.70;99.90;;;;;;5054986;28;19908;-75
2022/04/09 04:03:09;;;;;;;;;;;0.70;99.90;;;;;;5054515;28;19916;-75
2022/04/09 04:05:36;;;;;;;;;;;0.70;99.90;;;;;;5055431;28;20365;-75
2022/04/09 04:08:05;;;;;;;;;;;0.70;99.90;;;;;;5048357;28;19960;-74
2022/04/09 04:10:32;;;;;;;;;;;0.70;99.90;;;;;;5048286;28;19997;-75
2022/04/09 04:12:57;;;;;;;;;;;0.70;99.90;;;;;;5054060;28;20275;-73
2022/04/09 04:15:23;;;;;;;;;;;0.70;99.90;;;;;;5052183;28;19920;-75
2022/04/09 04:17:49;;;;;;;;;;;0.70;99.90;;;;;;5054580;28;19924;-75
2022/04/09 04:20:15;;;;;;;;;;;0.70;99.90;;;;;;5054580;28;19909;-75
2022/04/09 04:22:40;;;;;;;;;;;0.80;99.90;;;;;;5054419;28;20350;-75
2022/04/09 04:25:06;;;;;;;;;;;0.70;99.90;;;;;;5054175;28;19931;-74
2022/04/09 04:27:32;;;;;;;;;;;0.70;99.90;;;;;;5054364;28;19913;-75
2022/04/09 04:29:59;;;;;;;;;;;0.70;99.90;;;;;;5054320;28;20008;-75
2022/04/09 04:32:24;;;;;;;;;;;0.70;99.90;;;;;;5054200;28;20263;-74
2022/04/09 04:34:50;;;;;;;;;;;0.60;99.90;;;;;;5054039;28;19908;-75
2022/04/09 04:37:15;;;;;;;;;;;0.60;99.90;;;;;;5054385;28;19909;-75
2022/04/09 04:39:41;;;;;;;;;;;0.70;99.90;;;;;;5054395;28;19916;-74
2022/04/09 04:42:07;;;;;;;;;;;0.70;99.90;;;;;;5051262;28;20456;-74
2022/04/09 04:44:33;;;;;;;;;;;0.50;99.90;;;;;;5054749;28;19999;-73
2022/04/09 04:46:58;;;;;;;;;;;0.50;99.90;;;;;;5055105;28;19995;-73
2022/04/09 04:49:24;;;;;;;;;;;0.50;99.90;;;;;;5053235;28;19978;-75
2022/04/09 04:51:49;;;;;;;;;;;0.40;99.90;;;;;;5055151;28;19913;-74
2022/04/09 04:54:15;;;;;;;;;;;0.40;99.90;;;;;;5054189;28;19909;-75
2022/04/09 04:56:41;;;;;;;;;;;0.50;99.90;;;;;;5054153;28;19912;-75
2022/04/09 04:59:07;;;;;;;;;;;0.40;99.90;;;;;;5052762;28;19924;-74
2022/04/09 05:01:34;;;;;;;;;;;0.50;99.90;;;;;;5053640;28;19916;-73
2022/04/09 05:04:00;;;;;;;;;;;0.50;99.90;;;;;;5053954;28;19909;-75
2022/04/09 05:06:26;;;;;;;;;;;0.50;99.90;;;;;;5052523;28;20350;-75
2022/04/09 05:08:51;;;;;;;;;;;0.50;99.90;;;;;;5053467;28;19909;-74
2022/04/09 05:11:17;;;;;;;;;;;0.50;99.90;;;;;;5053102;28;19909;-74
2022/04/09 05:13:42;;;;;;;;;;;0.50;99.90;;;;;;5053142;28;20116;-75
2022/04/09 05:16:08;;;;;;;;;;;0.50;99.90;;;;;;5053477;28;20328;-74
2022/04/09 05:18:34;;;;;;;;;;;0.50;99.90;;;;;;5053899;28;19917;-73
2022/04/09 05:20:59;;;;;;;;;;;0.50;99.90;;;;;;5053316;28;20370;-73
2022/04/09 05:23:25;;;;;;;;;;;0.50;99.90;;;;;;5053163;28;20392;-75
2022/04/09 05:25:50;;;;;;;;;;;0.50;99.90;;;;;;5053381;28;19912;-75
2022/04/09 05:28:15;;;;;;;;;;;0.50;99.90;;;;;;5052766;28;19970;-74
2022/04/09 05:30:44;;;;;;;;;;;0.50;99.90;;;;;;5046737;28;19952;-75
2022/04/09 05:33:10;;;;;;;;;;;0.60;99.90;;;;;;5046461;28;19909;-73
2022/04/09 05:35:35;;;;;;;;;;;0.60;99.90;;;;;;5053160;28;20282;-76
2022/04/09 05:38:03;;;;;;;;;;;0.60;99.90;;;;;;5053186;28;19982;-75
2022/04/09 05:40:29;;;;;;;;;;;0.60;99.90;;;;;;5052788;28;19934;-75
2022/04/09 05:42:54;;;;;;;;;;;0.60;99.90;;;;;;5052260;28;19909;-75
2022/04/09 05:45:20;;;;;;;;;;;0.60;99.90;;;;;;5052610;28;20070;-73
2022/04/09 05:47:46;;;;;;;;;;;0.70;99.90;;;;;;5052987;28;19913;-75
2022/04/09 05:50:12;;;;;;;;;;;0.70;99.90;;;;;;5052716;28;20439;-75
2022/04/09 05:52:38;;;;;;;;;;;0.60;99.90;;;;;;5052945;28;19915;-75
2022/04/09 05:55:05;;;;;;;;;;;0.60;99.90;;;;;;5052513;28;20062;-75
2022/04/09 05:57:30;;;;;;;;;;;0.60;99.90;;;;;;5052776;28;20000;-73
2022/04/09 05:59:56;;;;;;;;;;;0.60;99.90;;;;;;5052796;28;19956;-75
2022/04/09 06:02:21;;;;;;;;;;;0.60;99.90;;;;;;5052632;28;19909;-75
2022/04/09 06:04:47;;;;;;;;;;;0.60;99.90;;;;;;5052624;28;19909;-75
2022/04/09 06:07:13;;;;;;;;;;;0.60;99.90;;;;;;5052608;28;20313;-73
2022/04/09 06:09:40;;;;;;;;;;;0.60;99.90;;;;;;5052535;28;19909;-73
2022/04/09 06:12:07;;;;;;;;;;;0.50;99.90;;;;;;5049360;28;20353;-75
2022/04/09 06:14:33;;;;;;;;;;;0.50;99.90;;;;;;5052003;28;19909;-73
2022/04/09 06:16:58;;;;;;;;;;;0.40;99.90;;;;;;5052313;28;19916;-73
2022/04/09 06:19:24;;;;;;;;;;;0.50;99.90;;;;;;5052088;28;20003;-75
2022/04/09 06:21:49;;;;;;;;;;;0.50;99.90;;;;;;5052324;28;19909;-75
2022/04/09 06:24:15;;;;;;;;;;;0.60;99.90;;;;;;5050712;28;19919;-74
2022/04/09 06:26:40;;;;;;;;;;;0.60;99.90;;;;;;5052117;28;19919;-75
2022/04/09 06:29:06;;;;;;;;;;;0.70;99.90;;;;;;5052184;28;19917;-75
2022/04/09 06:31:31;;;;;;;;;;;0.80;99.90;;;;;;5051956;28;19916;-75
2022/04/09 06:33:57;;;;;;;;;;;0.90;99.90;;;;;;5051777;28;19932;-73
2022/04/09 06:36:22;;;;;;;;;;;1.00;99.90;;;;;;5052049;28;20390;-73
2022/04/09 06:38:48;;;;;;;;;;;1.20;99.90;;;;;;5050228;28;20017;-74
2022/04/09 06:41:14;;;;;;;;;;;1.30;99.90;;;;;;5046376;28;20433;-79
2022/04/09 06:43:40;;;;;;;;;;;1.40;99.90;;;;;;5051326;28;19909;-74
2022/04/09 06:46:06;;;;;;;;;;;1.40;99.90;;;;;;5051841;28;19966;-75
2022/04/09 06:48:31;;;;;;;;;;;1.50;99.90;;;;;;5051963;28;19944;-75
2022/04/09 06:50:57;;;;;;;;;;;1.50;99.90;;;;;;5051569;28;20415;-73
2022/04/09 06:53:22;;;;;;;;;;;1.60;99.90;;;;;;5051451;28;19948;-74
2022/04/09 06:55:48;;;;;;;;;;;1.60;99.90;;;;;;5051925;28;19909;-74
2022/04/09 06:58:14;;;;;;;;;;;1.40;99.90;;;;;;5052061;28;19912;-76
2022/04/09 07:00:39;;;;;;;;;;;1.30;99.90;;;;;;5050756;28;19909;-73
2022/04/09 07:03:05;;;;;;;;;;;1.40;99.90;;;;;;5051271;28;19957;-77
2022/04/09 07:05:31;;;;;;;;;;;1.30;99.90;;;;;;5050335;28;19920;-74
2022/04/09 07:07:56;;;;;;;;;;;1.30;99.90;;;;;;5051523;28;19917;-74
2022/04/09 07:10:22;;;;;;;;;;;1.40;99.90;;;;;;5051808;28;20259;-76
2022/04/09 07:12:47;;;;;;;;;;;1.30;99.90;;;;;;5050546;28;19909;-73
2022/04/09 07:15:13;;;;;;;;;;;1.40;99.90;;;;;;5056200;28;19909;-73
2022/04/09 07:17:41;;;;;;;;;;;1.40;99.90;;;;;;5051288;28;19927;-75
2022/04/09 07:20:07;;;;;;;;;;;1.50;99.90;;;;;;5051379;28;20328;-76
2022/04/09 07:22:33;;;;;;;;;;;1.70;99.90;;;;;;5049946;28;20364;-74
2022/04/09 07:24:59;;;;;;;;;;;1.70;99.90;;;;;;5051174;28;19913;-73
2022/04/09 07:27:38;;;;;;;;;;;1.90;99.90;;;;;;5051438;28;19909;-73
2022/04/09 07:30:05;;;;;;;;;;;2.10;99.90;;;;;;5050360;28;19975;-74
2022/04/09 07:32:30;;;;;;;;;;;2.40;99.90;;;;;;5051151;28;19962;-73
2022/04/09 07:34:56;;;;;;;;;;;2.40;99.90;;;;;;5051094;28;19913;-73
2022/04/09 07:37:21;;;;;;;;;;;2.20;99.90;;;;;;5051096;28;19909;-73
2022/04/09 07:39:47;;;;;;;;;;;2.30;99.90;;;;;;5050777;28;20358;-75
2022/04/09 07:42:12;;;;;;;;;;;2.60;99.90;;;;;;5050700;28;19909;-74
2022/04/09 07:44:38;;;;;;;;;;;3.50;99.90;;;;;;5052390;28;19916;-73
2022/04/09 07:47:03;;;;;;;;;;;3.30;99.90;;;;;;5051366;28;19913;-74
2022/04/09 07:49:29;;;;;;;;;;;3.20;99.90;;;;;;5051235;28;19916;-76
2022/04/09 07:51:54;;;;;;;;;;;3.50;99.90;;;;;;5051147;28;19956;-74
2022/04/09 07:54:20;;;;;;;;;;;4.10;99.90;;;;;;5050845;28;20007;-73
2022/04/09 07:56:46;;;;;;;;;;;3.60;99.90;;;;;;5051231;28;19920;-74
2022/04/09 07:59:11;;;;;;;;;;;3.60;99.90;;;;;;5051018;28;20382;-77
2022/04/09 08:01:37;;;;;;;;;;;3.60;99.90;;;;;;5050991;28;19909;-73
2022/04/09 08:04:03;;;;;;;;;;;3.30;99.90;;;;;;5050871;28;19997;-73
2022/04/09 08:06:28;;;;;;;;;;;3.10;99.90;;;;;;5050827;28;19913;-73
2022/04/09 08:08:54;;;;;;;;;;;3.00;99.90;;;;;;5050931;28;19909;-73
2022/04/09 08:11:19;;;;;;;;;;;2.90;99.90;;;;;;5050605;28;19913;-75
2022/04/09 08:13:45;;;;;;;;;;;2.90;99.90;;;;;;5049872;28;20328;-73
2022/04/09 08:16:11;;;;;;;;;;;3.00;99.90;;;;;;5050940;28;19948;-73
2022/04/09 08:18:39;;;;;;;;;;;2.80;99.90;;;;;;5049608;28;19928;-73
2022/04/09 08:21:05;;;;;;;;;;;2.80;99.90;;;;;;5050686;28;19944;-74
2022/04/09 08:23:31;;;;;;;;;;;3.20;99.90;;;;;;5050434;28;19955;-73
2022/04/09 08:25:57;;;;;;;;;;;3.40;99.90;;;;;;5051240;28;20428;-73
2022/04/09 08:28:24;;;;;;;;;;;3.50;99.90;;;;;;5050965;28;19944;-73
2022/04/09 08:30:49;;;;;;;;;;;3.40;99.90;;;;;;5050694;28;19908;-73
2022/04/09 08:33:15;;;;;;;;;;;3.20;99.90;;;;;;5050398;28;19916;-73
2022/04/09 08:35:43;;;;;;;;;;;3.10;99.90;;;;;;5044113;28;19962;-73
2022/04/09 08:38:08;;;;;;;;;;;2.90;99.90;;;;;;5044252;28;19916;-73
2022/04/09 08:40:36;;;;;;;;;;;2.90;99.90;;;;;;5050506;28;20269;-76
2022/04/09 08:43:03;;;;;;;;;;;2.80;99.90;;;;;;5053802;28;19909;-73
2022/04/09 08:45:32;;;;;;;;;;;2.80;99.90;;;;;;5052791;28;20320;-76
2022/04/09 08:47:58;;;;;;;;;;;2.80;99.90;;;;;;5047994;28;19936;-73
2022/04/09 08:50:24;;;;;;;;;;;3.00;99.90;;;;;;5052948;28;20571;-73
2022/04/09 08:52:50;;;;;;;;;;;3.20;99.90;;;;;;5054202;28;19908;-73
2022/04/09 08:55:16;;;;;;;;;;;3.90;99.90;;;;;;5053926;28;19908;-73
2022/04/09 08:57:42;;;;;;;;;;;4.40;99.90;;;;;;5054233;28;19909;-73
2022/04/09 09:00:13;;;;;;;;;;;5.20;99.90;;;;;;5054215;28;19908;-72
2022/04/09 09:02:59;;;;;;;;;;;5.70;99.90;;;;;;5051802;28;19908;-74
2022/04/09 09:05:30;;;;;;;;;;;5.60;99.90;;;;;;5053547;28;20534;-73
2022/04/09 09:07:56;;;;;;;;;;;5.30;99.90;;;;;;5054017;28;19940;-73
2022/04/09 09:10:21;;;;;;;;;;;5.30;99.90;;;;;;5053898;28;20400;-73
2022/04/09 09:12:58;;;;;;;;;;;5.40;99.90;;;;;;5049959;28;19909;-74
2022/04/09 09:15:23;;;;;;;;;;;4.90;99.90;;;;;;5053545;28;20427;-74
2022/04/09 09:17:52;;;;;;;;;;;4.50;99.90;;;;;;5053783;28;19921;-73
2022/04/09 09:20:18;;;;;;;;;;;4.30;99.90;;;;;;5053556;28;19916;-74
2022/04/09 09:22:43;;;;;;;;;;;4.70;99.90;;;;;;5053494;28;19913;-74
2022/04/09 09:25:09;;;;;;;;;;;4.20;99.90;;;;;;5053527;28;19927;-73
2022/04/09 09:27:36;;;;;;;;;;;4.00;99.90;;;;;;5053709;28;19938;-73
2022/04/09 09:30:02;;;;;;;;;;;3.90;99.90;;;;;;5053469;28;19926;-74
2022/04/09 09:32:29;;;;;;;;;;;4.00;99.90;;;;;;5053344;28;19909;-74
2022/04/09 09:34:55;;;;;;;;;;;4.70;99.90;;;;;;5053192;28;19971;-73
2022/04/09 09:37:22;;;;;;;;;;;5.70;99.90;;;;;;5053426;28;19948;-73
2022/04/09 09:39:47;;;;;;;;;;;4.50;99.90;;;;;;5053476;28;20300;-73
2022/04/09 09:42:17;;;;;;;;;;;4.00;99.90;;;;;;5047093;28;19909;-73
2022/04/09 09:44:43;;;;;;;;;;;3.50;99.90;;;;;;5047342;28;19915;-73
2022/04/09 09:47:09;;;;;;;;;;;3.40;99.90;;;;;;5053606;28;19912;-73
2022/04/09 09:49:56;;;;;;;;;;;3.50;99.90;;;;;;5052845;28;19908;-73
2022/04/09 09:52:32;;;;;;;;;;;3.90;99.90;;;;;;5052500;28;20389;-73
2022/04/09 09:54:59;;;;;;;;;;;7.60;99.90;;;;;;5052829;28;19923;-73
2022/04/09 09:57:28;;;;;;;;;;;8.00;99.90;;;;;;5052973;28;19908;-74
2022/04/09 09:59:55;;;;;;;;;;;9.70;99.90;;;;;;5052673;28;19959;-73
2022/04/09 10:02:21;;;;;;;;;;;11.10;99.00;;;;;;5052553;28;19913;-74
2022/04/09 10:04:47;;;;;;;;;;;12.50;95.20;;;;;;5052342;28;19916;-74
2022/04/09 10:07:16;;;;;;;;;;;12.30;93.50;;;;;;5052574;28;20366;-74
2022/04/09 10:09:42;;;;;;;;;;;13.30;92.50;;;;;;5052617;28;20366;-73
2022/04/09 10:12:14;;;;;;;;;;;12.40;89.70;;;;;;5051773;28;19962;-73
2022/04/09 10:14:40;;;;;;;;;;;13.20;88.00;;;;;;5052152;28;19948;-73
2022/04/09 10:17:08;;;;;;;;;;;11.80;89.60;;;;;;5052905;28;19955;-73
2022/04/09 10:19:40;;;;;;;;;;;12.10;90.20;;;;;;5052466;28;19909;-73
2022/04/09 10:22:06;;;;;;;;;;;12.30;85.90;;;;;;5045855;28;19932;-73
2022/04/09 10:24:32;;;;;;;;;;;11.30;83.80;;;;;;5052135;28;19909;-73
2022/04/09 10:26:59;;;;;;;;;;;12.00;86.00;;;;;;5052689;28;19919;-74
2022/04/09 10:29:25;;;;;;;;;;;9.60;88.20;;;;;;5053230;28;19935;-73
2022/04/09 10:31:54;;;;;;;;;;;9.60;90.90;;;;;;5053198;28;20357;-73
2022/04/09 10:34:20;;;;;;;;;;;10.70;83.40;;;;;;5051947;28;20380;-74
2022/04/09 10:36:45;;;;;;;;;;;9.20;89.20;;;;;;5052262;28;20003;-74
2022/04/09 10:39:23;;;;;;;;;;;7.50;93.30;;;;;;5052192;28;19940;-75
2022/04/09 10:41:49;;;;;;;;;;;10.60;92.20;;;;;;5051593;28;20190;-74
2022/04/09 10:44:37;;;;;;;;;;;10.00;83.40;;;;;;5051600;28;19944;-74
2022/04/09 10:47:03;;;;;;;;;;;12.10;90.30;;;;;;5051914;28;20014;-74
2022/04/09 10:49:30;;;;;;;;;;;13.80;79.10;;;;;;5051847;28;19919;-74
2022/04/09 10:52:06;;;;;;;;;;;14.80;77.20;;;;;;5051647;28;19912;-74
2022/04/09 10:54:32;;;;;;;;;;;13.20;75.10;;;;;;5051676;28;19971;-74
2022/04/09 10:57:08;;;;;;;;;;;15.30;72.70;;;;;;5050872;28;20316;-74
2022/04/09 10:59:34;;;;;;;;;;;14.30;74.30;;;;;;5051778;28;20274;-75
2022/04/09 11:02:00;;;;;;;;;;;9.90;83.80;;;;;;5051531;28;20377;-73
2022/04/09 11:04:25;;;;;;;;;;;10.30;82.20;;;;;;5046464;28;19916;-74
2022/04/09 11:07:10;;;;;;;;;;;11.50;76.40;;;;;;5051488;28;19917;-74
2022/04/09 11:09:41;;;;;;;;;;;9.10;82.10;;;;;;5045292;28;19963;-74
2022/04/09 11:12:07;;;;;;;;;;;8.50;84.40;;;;;;5039280;28;19913;-74
2022/04/09 11:14:49;;;;;;;;;;;7.60;90.70;;;;;;5051060;28;20273;-74
2022/04/09 11:17:18;;;;;;;;;;;6.60;90.80;;;;;;5051158;28;19923;-74
2022/04/09 11:19:44;;;;;;;;;;;10.20;86.70;;;;;;5051392;28;19909;-74
2022/04/09 11:22:10;;;;;;;;;;;11.70;81.20;;;;;;5051130;28;19912;-76
2022/04/09 11:24:36;;;;;;;;;;;13.60;72.90;;;;;;5051206;28;19908;-74
2022/04/09 11:27:02;;;;;;;;;;;12.30;72.10;;;;;;5051296;28;20012;-74
2022/04/09 11:29:31;;;;;;;;;;;13.10;74.80;;;;;;5051088;28;19944;-74
2022/04/09 11:31:56;;;;;;;;;;;13.70;67.70;;;;;;5050918;28;19909;-74
2022/04/09 11:34:22;;;;;;;;;;;13.40;72.90;;;;;;5051006;28;19909;-74
2022/04/09 11:36:51;;;;;;;;;;;13.40;72.70;;;;;;5051298;28;20290;-74
2022/04/09 11:39:17;;;;;;;;;;;13.80;68.80;;;;;;5051204;28;19913;-74
2022/04/09 11:41:46;;;;;;;;;;;14.10;69.10;;;;;;5050754;28;19993;-74
2022/04/09 11:44:25;;;;;;;;;;;14.70;70.00;;;;;;5050560;28;19908;-73
2022/04/09 11:46:51;;;;;;;;;;;15.40;70.50;;;;;;5050986;28;19959;-74
2022/04/09 11:49:18;;;;;;;;;;;12.90;65.60;;;;;;5051095;28;19913;-73
2022/04/09 11:51:54;;;;;;;;;;;12.40;71.50;;;;;;5050795;28;19909;-74
2022/04/09 11:54:19;;;;;;;;;;;11.70;68.60;;;;;;5050820;28;20344;-75
2022/04/09 11:56:45;;;;;;;;;;;10.10;79.50;;;;;;5050921;28;19963;-73
2022/04/09 11:59:11;;;;;;;;;;;8.80;81.10;;;;;;5051037;28;19944;-74
2022/04/09 12:01:37;;;;;;;;;;;12.70;73.00;;;;;;5050619;28;19996;-74
2022/04/09 12:04:02;;;;;;;;;;;13.30;65.90;;;;;;5049386;28;20154;-74
2022/04/09 12:06:28;;;;;;;;;;;10.40;74.70;;;;;;5051024;28;19912;-73
2022/04/09 12:08:53;;;;;;;;;;;11.40;71.30;;;;;;5050926;28;20336;-74
2022/04/09 12:11:20;;;;;;;;;;;10.80;73.10;;;;;;5050380;28;19920;-75
2022/04/09 12:13:46;;;;;;;;;;;8.80;79.30;;;;;;5050375;28;20026;-74
2022/04/09 12:16:12;;;;;;;;;;;7.80;83.30;;;;;;5051875;28;20011;-73
2022/04/09 12:18:38;;;;;;;;;;;6.70;82.30;;;;;;5054294;28;20071;-74
2022/04/09 12:21:16;;;;;;;;;;;6.80;84.70;;;;;;5052578;28;19908;-73
2022/04/09 12:23:42;;;;;;;;;;;6.20;84.90;;;;;;5054244;28;19909;-73
2022/04/09 12:26:20;;;;;;;;;;;6.90;84.10;;;;;;5054621;28;19919;-73
2022/04/09 12:28:46;;;;;;;;;;;7.30;83.40;;;;;;5054609;28;19909;-74
2022/04/09 12:31:24;;;;;;;;;;;8.50;87.50;;;;;;5054490;28;19995;-73
2022/04/09 12:33:59;;;;;;;;;;;7.90;82.40;;;;;;5047845;28;19932;-73
2022/04/09 12:36:25;;;;;;;;;;;6.80;81.50;;;;;;5052015;28;20370;-73
2022/04/09 12:38:50;;;;;;;;;;;6.90;82.60;;;;;;5054547;28;19909;-73
2022/04/09 12:41:16;;;;;;;;;;;7.30;82.30;;;;;;5052612;28;19909;-73
2022/04/09 12:43:42;;;;;;;;;;;7.50;81.50;;;;;;5053734;28;20396;-73
2022/04/09 12:46:09;;;;;;;;;;;7.90;83.00;;;;;;5054246;28;20400;-73
2022/04/09 12:48:38;;;;;;;;;;;8.00;87.30;;;;;;5054370;28;20346;-73
2022/04/09 12:51:04;;;;;;;;;;;8.20;82.90;;;;;;5054257;28;19908;-74
2022/04/09 12:53:30;;;;;;;;;;;7.90;83.80;;;;;;5054011;28;19909;-73
2022/04/09 12:55:55;;;;;;;;;;;7.90;84.00;;;;;;5051544;28;20562;-73
2022/04/09 12:58:21;;;;;;;;;;;7.90;87.70;;;;;;5052357;28;19909;-73
2022/04/09 13:00:46;;;;;;;;;;;7.80;80.40;;;;;;5053987;28;19920;-74
2022/04/09 13:03:13;;;;;;;;;;;7.40;83.70;;;;;;5051692;28;19929;-73
2022/04/09 13:05:41;;;;;;;;;;;7.00;83.10;;;;;;5046686;28;20020;-73
2022/04/09 13:08:06;;;;;;;;;;;7.10;82.40;;;;;;5053935;28;19916;-73
2022/04/09 13:10:34;;;;;;;;;;;7.10;82.10;;;;;;5053947;28;20290;-73
2022/04/09 13:13:00;;;;;;;;;;;7.10;85.30;;;;;;5054123;28;19909;-72
2022/04/09 13:15:25;;;;;;;;;;;7.00;83.00;;;;;;5054529;28;19996;-73
2022/04/09 13:17:51;;;;;;;;;;;7.10;82.90;;;;;;5052208;28;20428;-75
2022/04/09 13:20:17;;;;;;;;;;;7.00;81.00;;;;;;5053329;28;19912;-73
2022/04/09 13:22:43;;;;;;;;;;;7.20;83.40;;;;;;5052182;28;19917;-75
2022/04/09 13:25:08;;;;;;;;;;;7.20;83.40;;;;;;5053191;28;19908;-73
2022/04/09 13:27:34;;;;;;;;;;;7.80;79.90;;;;;;5049237;28;20290;-73
2022/04/09 13:30:01;;;;;;;;;;;7.60;80.80;;;;;;5053144;28;20419;-73
2022/04/09 13:32:26;;;;;;;;;;;7.70;80.70;;;;;;5053239;28;19916;-73
2022/04/09 13:34:52;;;;;;;;;;;7.70;80.80;;;;;;5053102;28;20262;-73
2022/04/09 13:37:20;;;;;;;;;;;7.00;79.20;;;;;;5049994;28;19955;-74
2022/04/09 13:39:45;;;;;;;;;;;7.10;78.90;;;;;;5053021;28;19909;-72
2022/04/09 13:42:11;;;;;;;;;;;7.20;78.90;;;;;;5053152;28;19916;-72
2022/04/09 13:44:38;;;;;;;;;;;7.20;77.50;;;;;;5053091;28;19913;-72
2022/04/09 13:47:05;;;;;;;;;;;7.20;77.80;;;;;;5047511;28;20431;-73
2022/04/09 13:49:30;;;;;;;;;;;7.70;78.20;;;;;;5058299;28;19909;-73
2022/04/09 13:51:56;;;;;;;;;;;7.80;80.40;;;;;;5050762;28;19916;-75
2022/04/09 13:54:22;;;;;;;;;;;7.30;80.00;;;;;;5052626;28;19909;-73
2022/04/09 13:56:47;;;;;;;;;;;7.60;80.10;;;;;;5052799;28;20313;-73
2022/04/09 13:59:13;;;;;;;;;;;8.10;81.90;;;;;;5052819;28;19992;-73
2022/04/09 14:01:38;;;;;;;;;;;8.30;82.00;;;;;;5052777;28;19909;-74
2022/04/09 14:04:04;;;;;;;;;;;8.20;81.70;;;;;;5051195;28;19916;-74
2022/04/09 14:06:29;;;;;;;;;;;8.00;81.60;;;;;;5052792;28;19913;-73
2022/04/09 14:08:55;;;;;;;;;;;8.40;83.50;;;;;;5052729;28;19908;-73
2022/04/09 14:11:21;;;;;;;;;;;8.30;83.50;;;;;;5052417;28;19909;-73
2022/04/09 14:13:48;;;;;;;;;;;8.00;79.80;;;;;;5052188;28;19948;-74
2022/04/09 14:16:13;;;;;;;;;;;7.90;82.90;;;;;;5052363;28;19909;-73
2022/04/09 14:18:39;;;;;;;;;;;7.90;86.00;;;;;;5052475;28;19917;-73
2022/04/09 14:21:04;;;;;;;;;;;7.70;85.70;;;;;;5052100;28;20393;-73
2022/04/09 14:23:31;;;;;;;;;;;7.20;84.30;;;;;;5051794;28;19952;-73
2022/04/09 14:25:57;;;;;;;;;;;7.20;84.60;;;;;;5052431;28;20128;-74
2022/04/09 14:28:26;;;;;;;;;;;7.30;84.50;;;;;;5052251;28;19920;-73